createdAt,value
2016-09-24T00:00:06.145Z,17.08
2016-09-24T00:01:06.167Z,17.11
2016-09-24T00:02:06.186Z,17.08
2016-09-24T00:03:06.214Z,17.05
2016-09-24T00:04:06.226Z,17.05
2016-09-24T00:05:06.255Z,17.06
2016-09-24T00:06:06.272Z,17.04
2016-09-24T00:07:06.306Z,17.06
2016-09-24T00:08:06.317Z,16.94
2016-09-24T00:09:06.350Z,16.96
2016-09-24T00:10:06.365Z,17.09
2016-09-24T00:11:06.382Z,17.08
2016-09-24T00:12:06.583Z,16.93
2016-09-24T00:13:06.516Z,16.99
2016-09-24T00:14:06.463Z,16.99
2016-09-24T00:15:06.477Z,17.02
2016-09-24T00:16:06.514Z,16.94
2016-09-24T00:17:06.521Z,17.01
2016-09-24T00:18:06.546Z,17.05
2016-09-24T00:19:06.556Z,16.94
2016-09-24T00:20:06.915Z,16.89
2016-09-24T00:21:06.598Z,16.93
2016-09-24T00:22:06.636Z,16.87
2016-09-24T00:23:06.650Z,16.9
2016-09-24T00:24:06.672Z,16.91
2016-09-24T00:25:06.708Z,16.86
2016-09-24T00:26:06.723Z,16.91
2016-09-24T00:27:06.736Z,16.84
2016-09-24T00:28:06.761Z,16.84
2016-09-24T00:29:09.824Z,16.79
2016-09-24T00:30:06.808Z,16.84
2016-09-24T00:31:06.831Z,16.84
2016-09-24T00:32:06.861Z,16.84
2016-09-24T00:33:06.892Z,16.79
2016-09-24T00:34:06.903Z,16.79
2016-09-24T00:35:06.933Z,16.76
2016-09-24T00:36:06.967Z,16.76
2016-09-24T00:37:06.961Z,16.79
2016-09-24T00:38:06.986Z,16.78
2016-09-24T00:39:06.993Z,16.75
2016-09-24T00:40:07.034Z,16.74
2016-09-24T00:41:07.051Z,16.75
2016-09-24T00:42:07.077Z,16.78
2016-09-24T00:43:07.088Z,16.65
2016-09-24T00:44:07.102Z,16.61
2016-09-24T00:45:07.124Z,16.61
2016-09-24T00:46:07.163Z,16.71
2016-09-24T00:47:07.180Z,16.65
2016-09-24T00:48:07.206Z,16.65
2016-09-24T00:49:07.235Z,16.6
2016-09-24T00:50:07.241Z,16.64
2016-09-24T00:51:07.259Z,16.64
2016-09-24T00:52:07.306Z,16.61
2016-09-24T00:53:07.305Z,16.65
2016-09-24T00:54:07.328Z,16.54
2016-09-24T00:55:07.350Z,16.56
2016-09-24T00:56:07.379Z,16.56
2016-09-24T00:57:07.385Z,16.46
2016-09-24T00:58:07.420Z,16.57
2016-09-24T00:59:07.427Z,16.5
2016-09-24T01:00:07.464Z,16.47
2016-09-24T01:01:07.480Z,16.51
2016-09-24T01:02:07.493Z,16.5
2016-09-24T01:03:07.533Z,16.5
2016-09-24T01:04:07.538Z,16.5
2016-09-24T01:05:07.571Z,16.47
2016-09-24T01:06:07.589Z,16.42
2016-09-24T01:07:07.609Z,16.47
2016-09-24T01:08:07.644Z,16.42
2016-09-24T01:09:07.662Z,16.43
2016-09-24T01:10:07.687Z,16.42
2016-09-24T01:11:07.697Z,16.41
2016-09-24T01:12:07.715Z,16.49
2016-09-24T01:13:08.052Z,16.41
2016-09-24T01:14:07.773Z,16.31
2016-09-24T01:15:07.792Z,16.38
2016-09-24T01:16:07.807Z,16.32
2016-09-24T01:17:07.832Z,16.33
2016-09-24T01:18:07.853Z,16.39
2016-09-24T01:19:07.875Z,16.35
2016-09-24T01:20:07.893Z,16.33
2016-09-24T01:21:07.912Z,16.38
2016-09-24T01:22:07.947Z,16.17
2016-09-24T01:23:07.970Z,16.26
2016-09-24T01:24:08.286Z,16.23
2016-09-24T01:25:07.996Z,16.24
2016-09-24T01:26:08.016Z,16.28
2016-09-24T01:27:08.042Z,16.26
2016-09-24T01:28:08.069Z,16.24
2016-09-24T01:29:08.088Z,16.29
2016-09-24T01:30:08.115Z,16.2
2016-09-24T01:31:08.133Z,16.21
2016-09-24T01:32:08.158Z,16.28
2016-09-24T01:33:08.168Z,16.16
2016-09-24T01:34:08.197Z,16.28
2016-09-24T01:35:08.217Z,16.17
2016-09-24T01:36:08.249Z,16.17
2016-09-24T01:37:08.259Z,16.2
2016-09-24T01:38:08.274Z,16.12
2016-09-24T01:39:08.298Z,16.12
2016-09-24T01:40:08.322Z,16.1
2016-09-24T01:41:08.337Z,16.15
2016-09-24T01:42:08.362Z,16.1
2016-09-24T01:43:08.391Z,16.13
2016-09-24T01:44:08.424Z,16.1
2016-09-24T01:45:08.434Z,16.13
2016-09-24T01:46:08.461Z,16.09
2016-09-24T01:47:08.473Z,16.05
2016-09-24T01:48:08.504Z,16.08
2016-09-24T01:49:08.506Z,16.02
2016-09-24T01:50:08.536Z,16.04
2016-09-24T01:51:08.559Z,16.05
2016-09-24T01:52:08.584Z,16.05
2016-09-24T01:53:08.599Z,15.94
2016-09-24T01:54:08.631Z,15.94
2016-09-24T01:55:08.641Z,16.01
2016-09-24T01:56:08.668Z,15.98
2016-09-24T01:57:08.695Z,15.94
2016-09-24T01:58:08.703Z,16.05
2016-09-24T01:59:08.730Z,16.05
2016-09-24T02:00:08.740Z,16
2016-09-24T02:01:08.940Z,15.98
2016-09-24T02:02:08.793Z,15.95
2016-09-24T02:03:08.807Z,16.01
2016-09-24T02:04:08.839Z,15.95
2016-09-24T02:05:08.852Z,15.95
2016-09-24T02:06:08.928Z,15.98
2016-09-24T02:07:08.901Z,16
2016-09-24T02:08:08.923Z,15.98
2016-09-24T02:09:08.946Z,15.91
2016-09-24T02:10:08.976Z,15.91
2016-09-24T02:11:08.985Z,15.94
2016-09-24T02:12:09.016Z,15.91
2016-09-24T02:13:09.022Z,15.9
2016-09-24T02:14:09.045Z,15.86
2016-09-24T02:15:09.064Z,15.86
2016-09-24T02:16:09.083Z,15.82
2016-09-24T02:17:09.113Z,15.8
2016-09-24T02:18:09.126Z,15.8
2016-09-24T02:19:09.145Z,15.8
2016-09-24T02:20:09.182Z,15.76
2016-09-24T02:21:09.208Z,15.79
2016-09-24T02:22:09.220Z,15.82
2016-09-24T02:23:09.237Z,15.84
2016-09-24T02:24:09.259Z,15.84
2016-09-24T02:25:09.277Z,15.79
2016-09-24T02:26:09.302Z,15.77
2016-09-24T02:27:09.319Z,15.72
2016-09-24T02:28:09.343Z,15.82
2016-09-24T02:29:09.368Z,15.77
2016-09-24T02:30:09.389Z,15.7
2016-09-24T02:31:09.416Z,15.72
2016-09-24T02:32:09.432Z,15.75
2016-09-24T02:33:09.452Z,15.72
2016-09-24T02:34:09.473Z,15.73
2016-09-24T02:35:09.487Z,15.64
2016-09-24T02:36:09.506Z,15.64
2016-09-24T02:37:09.542Z,15.65
2016-09-24T02:38:09.563Z,15.68
2016-09-24T02:39:09.570Z,15.72
2016-09-24T02:40:09.594Z,15.65
2016-09-24T02:41:09.716Z,15.58
2016-09-24T02:42:09.637Z,15.59
2016-09-24T02:43:09.649Z,15.65
2016-09-24T02:44:09.680Z,15.62
2016-09-24T02:45:09.710Z,15.61
2016-09-24T02:46:09.733Z,15.65
2016-09-24T02:47:10.091Z,15.68
2016-09-24T02:48:09.877Z,15.61
2016-09-24T02:49:09.789Z,15.68
2016-09-24T02:50:09.911Z,15.68
2016-09-24T02:51:09.921Z,15.67
2016-09-24T02:52:09.955Z,15.64
2016-09-24T02:53:09.966Z,15.59
2016-09-24T02:54:09.972Z,15.61
2016-09-24T02:55:09.971Z,15.64
2016-09-24T02:56:10.040Z,15.62
2016-09-24T02:57:10.052Z,15.54
2016-09-24T02:58:10.062Z,15.52
2016-09-24T02:59:10.059Z,15.52
2016-09-24T03:00:10.069Z,15.54
2016-09-24T03:01:10.073Z,15.49
2016-09-24T03:02:10.089Z,15.51
2016-09-24T03:03:10.091Z,15.55
2016-09-24T03:04:10.102Z,15.55
2016-09-24T03:05:10.214Z,15.54
2016-09-24T03:06:10.224Z,15.46
2016-09-24T03:07:10.232Z,15.52
2016-09-24T03:08:10.269Z,15.55
2016-09-24T03:09:10.204Z,15.55
2016-09-24T03:10:10.219Z,15.47
2016-09-24T03:11:10.243Z,15.49
2016-09-24T03:12:10.267Z,15.43
2016-09-24T03:13:10.286Z,15.47
2016-09-24T03:14:10.312Z,15.49
2016-09-24T03:15:10.325Z,15.47
2016-09-24T03:16:10.349Z,15.47
2016-09-24T03:17:10.373Z,15.43
2016-09-24T03:18:10.387Z,15.43
2016-09-24T03:19:10.408Z,15.39
2016-09-24T03:20:10.431Z,15.35
2016-09-24T03:21:10.447Z,15.4
2016-09-24T03:22:10.465Z,15.36
2016-09-24T03:23:10.491Z,15.46
2016-09-24T03:24:10.527Z,15.37
2016-09-24T03:25:10.530Z,15.36
2016-09-24T03:26:10.555Z,15.39
2016-09-24T03:27:10.576Z,15.37
2016-09-24T03:28:10.601Z,15.39
2016-09-24T03:29:10.625Z,15.4
2016-09-24T03:30:10.641Z,15.33
2016-09-24T03:31:10.671Z,15.29
2016-09-24T03:32:10.687Z,15.33
2016-09-24T03:33:10.704Z,15.33
2016-09-24T03:34:10.721Z,15.39
2016-09-24T03:35:10.756Z,15.29
2016-09-24T03:36:10.766Z,15.24
2016-09-24T03:37:10.789Z,15.36
2016-09-24T03:38:10.815Z,15.24
2016-09-24T03:39:10.831Z,15.28
2016-09-24T03:40:10.845Z,15.31
2016-09-24T03:41:10.878Z,15.27
2016-09-24T03:42:10.883Z,15.18
2016-09-24T03:43:10.912Z,15.29
2016-09-24T03:44:11.256Z,15.28
2016-09-24T03:45:10.955Z,15.36
2016-09-24T03:46:10.978Z,15.25
2016-09-24T03:47:10.988Z,15.15
2016-09-24T03:48:11.003Z,15.28
2016-09-24T03:49:11.035Z,15.14
2016-09-24T03:50:11.060Z,15.21
2016-09-24T03:51:11.077Z,15.15
2016-09-24T03:52:11.102Z,15.27
2016-09-24T03:53:11.124Z,15.19
2016-09-24T03:54:11.143Z,15.18
2016-09-24T03:55:11.161Z,15.19
2016-09-24T03:56:11.172Z,15.22
2016-09-24T03:57:11.202Z,15.18
2016-09-24T03:58:11.223Z,15.19
2016-09-24T03:59:11.245Z,15.22
2016-09-24T04:00:11.252Z,15.18
2016-09-24T04:01:11.280Z,15.1
2016-09-24T04:02:11.298Z,15.15
2016-09-24T04:03:11.320Z,15.11
2016-09-24T04:04:11.354Z,15.11
2016-09-24T04:05:11.384Z,15.19
2016-09-24T04:06:11.378Z,15.18
2016-09-24T04:07:11.411Z,15.21
2016-09-24T04:08:11.427Z,15.1
2016-09-24T04:09:11.462Z,15.15
2016-09-24T04:10:11.465Z,15.17
2016-09-24T04:11:11.492Z,15.18
2016-09-24T04:12:11.520Z,15.04
2016-09-24T04:13:11.543Z,15.11
2016-09-24T04:14:11.550Z,15.19
2016-09-24T04:15:11.571Z,15.14
2016-09-24T04:16:11.600Z,15.11
2016-09-24T04:17:11.611Z,15.11
2016-09-24T04:18:11.625Z,15.1
2016-09-24T04:19:11.658Z,15.09
2016-09-24T04:20:11.672Z,15.1
2016-09-24T04:21:11.686Z,15.07
2016-09-24T04:22:11.722Z,15.06
2016-09-24T04:23:11.732Z,15.07
2016-09-24T04:24:11.881Z,15.15
2016-09-24T04:25:11.857Z,15.09
2016-09-24T04:26:12.025Z,15.15
2016-09-24T04:27:12.036Z,15.14
2016-09-24T04:28:12.045Z,15.15
2016-09-24T04:29:12.046Z,15.04
2016-09-24T04:30:12.051Z,15.02
2016-09-24T04:31:12.201Z,15.07
2016-09-24T04:32:12.071Z,15.1
2016-09-24T04:33:12.077Z,15.07
2016-09-24T04:34:12.089Z,15.06
2016-09-24T04:35:12.090Z,14.99
2016-09-24T04:36:12.228Z,15.1
2016-09-24T04:37:12.142Z,15.04
2016-09-24T04:38:12.157Z,15.07
2016-09-24T04:39:12.159Z,15.1
2016-09-24T04:40:12.162Z,15.03
2016-09-24T04:41:12.230Z,15.03
2016-09-24T04:42:12.220Z,15.03
2016-09-24T04:43:12.227Z,15.03
2016-09-24T04:44:12.232Z,15.03
2016-09-24T04:45:12.277Z,15.02
2016-09-24T04:46:12.310Z,15.03
2016-09-24T04:47:12.279Z,15.02
2016-09-24T04:48:12.294Z,15
2016-09-24T04:49:12.290Z,15
2016-09-24T04:50:12.289Z,15.04
2016-09-24T04:51:12.306Z,15
2016-09-24T04:52:12.347Z,14.96
2016-09-24T04:53:12.347Z,15
2016-09-24T04:54:12.362Z,14.94
2016-09-24T04:55:12.391Z,14.97
2016-09-24T04:56:12.409Z,14.97
2016-09-24T04:57:12.445Z,15
2016-09-24T04:58:12.452Z,14.96
2016-09-24T04:59:12.465Z,14.96
2016-09-24T05:00:12.496Z,14.94
2016-09-24T05:01:12.504Z,15
2016-09-24T05:02:12.534Z,14.94
2016-09-24T05:03:12.556Z,14.89
2016-09-24T05:04:12.568Z,14.99
2016-09-24T05:05:12.599Z,14.91
2016-09-24T05:06:12.740Z,14.91
2016-09-24T05:07:12.633Z,14.92
2016-09-24T05:08:12.685Z,14.82
2016-09-24T05:09:12.714Z,14.91
2016-09-24T05:10:12.688Z,14.86
2016-09-24T05:11:12.720Z,14.81
2016-09-24T05:12:12.733Z,14.88
2016-09-24T05:13:12.759Z,14.86
2016-09-24T05:14:12.775Z,14.84
2016-09-24T05:15:12.794Z,14.86
2016-09-24T05:16:12.820Z,14.85
2016-09-24T05:17:12.828Z,14.84
2016-09-24T05:18:12.853Z,14.82
2016-09-24T05:19:12.883Z,14.89
2016-09-24T05:20:13.005Z,14.82
2016-09-24T05:21:12.917Z,14.73
2016-09-24T05:22:12.937Z,14.88
2016-09-24T05:23:12.947Z,14.88
2016-09-24T05:24:12.972Z,14.82
2016-09-24T05:25:12.998Z,14.78
2016-09-24T05:26:13.064Z,14.77
2016-09-24T05:27:13.035Z,14.85
2016-09-24T05:28:13.063Z,14.78
2016-09-24T05:29:13.084Z,14.81
2016-09-24T05:30:13.103Z,14.77
2016-09-24T05:31:13.116Z,14.81
2016-09-24T05:32:13.138Z,14.72
2016-09-24T05:33:13.163Z,14.77
2016-09-24T05:34:13.181Z,14.77
2016-09-24T05:35:13.204Z,14.82
2016-09-24T05:36:13.222Z,14.91
2016-09-24T05:37:13.267Z,14.82
2016-09-24T05:38:13.263Z,14.81
2016-09-24T05:39:13.285Z,14.77
2016-09-24T05:40:13.300Z,14.85
2016-09-24T05:41:13.321Z,14.7
2016-09-24T05:42:13.339Z,14.79
2016-09-24T05:43:13.365Z,14.78
2016-09-24T05:44:13.381Z,14.79
2016-09-24T05:45:13.407Z,14.78
2016-09-24T05:46:13.431Z,14.84
2016-09-24T05:47:13.439Z,14.84
2016-09-24T05:48:13.470Z,14.68
2016-09-24T05:49:13.489Z,14.77
2016-09-24T05:50:13.509Z,14.79
2016-09-24T05:51:13.527Z,14.82
2016-09-24T05:52:13.544Z,14.86
2016-09-24T05:53:13.563Z,14.82
2016-09-24T05:54:13.575Z,14.77
2016-09-24T05:55:13.603Z,14.85
2016-09-24T05:56:13.619Z,14.86
2016-09-24T05:57:13.638Z,14.84
2016-09-24T05:58:13.664Z,14.84
2016-09-24T05:59:13.688Z,14.77
2016-09-24T06:00:13.697Z,14.79
2016-09-24T06:01:13.722Z,14.78
2016-09-24T06:02:13.745Z,14.79
2016-09-24T06:03:13.874Z,14.78
2016-09-24T06:04:13.887Z,14.82
2016-09-24T06:05:13.896Z,14.84
2016-09-24T06:06:14.042Z,14.88
2016-09-24T06:07:14.045Z,14.77
2016-09-24T06:08:13.872Z,14.78
2016-09-24T06:09:13.886Z,14.86
2016-09-24T06:10:13.910Z,14.84
2016-09-24T06:11:13.925Z,14.84
2016-09-24T06:12:13.945Z,14.84
2016-09-24T06:13:13.968Z,14.89
2016-09-24T06:14:14.001Z,14.94
2016-09-24T06:15:14.017Z,14.92
2016-09-24T06:16:14.038Z,14.99
2016-09-24T06:17:14.053Z,14.89
2016-09-24T06:18:14.069Z,14.94
2016-09-24T06:19:14.081Z,14.97
2016-09-24T06:20:14.104Z,14.99
2016-09-24T06:21:14.149Z,14.97
2016-09-24T06:22:14.147Z,14.99
2016-09-24T06:23:14.175Z,14.94
2016-09-24T06:24:14.199Z,14.99
2016-09-24T06:25:14.203Z,15.07
2016-09-24T06:26:14.233Z,15.02
2016-09-24T06:27:14.251Z,15.07
2016-09-24T06:28:14.265Z,15.09
2016-09-24T06:29:14.294Z,15.04
2016-09-24T06:30:14.303Z,15.07
2016-09-24T06:31:14.383Z,15.15
2016-09-24T06:32:14.351Z,15.07
2016-09-24T06:33:14.378Z,15.11
2016-09-24T06:34:14.397Z,15.19
2016-09-24T06:35:14.413Z,15.22
2016-09-24T06:36:14.438Z,15.19
2016-09-24T06:37:14.454Z,15.19
2016-09-24T06:38:14.469Z,15.21
2016-09-24T06:39:14.492Z,15.17
2016-09-24T06:40:14.514Z,15.27
2016-09-24T06:41:14.539Z,15.18
2016-09-24T06:42:14.554Z,15.33
2016-09-24T06:43:14.887Z,15.27
2016-09-24T06:44:14.590Z,15.27
2016-09-24T06:45:14.613Z,15.39
2016-09-24T06:46:14.623Z,15.31
2016-09-24T06:47:14.647Z,15.39
2016-09-24T06:48:14.668Z,15.35
2016-09-24T06:49:14.693Z,15.36
2016-09-24T06:50:14.823Z,15.44
2016-09-24T06:51:15.158Z,15.39
2016-09-24T06:52:14.849Z,15.46
2016-09-24T06:53:14.859Z,15.46
2016-09-24T06:54:14.980Z,15.52
2016-09-24T06:55:14.989Z,15.55
2016-09-24T06:56:14.996Z,15.54
2016-09-24T06:57:15.004Z,15.61
2016-09-24T06:58:15.010Z,15.62
2016-09-24T06:59:15.022Z,15.61
2016-09-24T07:00:15.024Z,15.59
2016-09-24T07:01:15.037Z,15.64
2016-09-24T07:02:15.048Z,15.73
2016-09-24T07:03:15.185Z,15.77
2016-09-24T07:04:15.189Z,15.82
2016-09-24T07:05:15.205Z,15.82
2016-09-24T07:06:15.108Z,15.75
2016-09-24T07:07:15.156Z,15.91
2016-09-24T07:08:15.167Z,15.9
2016-09-24T07:09:15.171Z,15.88
2016-09-24T07:10:15.210Z,16
2016-09-24T07:11:15.212Z,15.98
2016-09-24T07:12:15.209Z,16.01
2016-09-24T07:13:15.224Z,16.08
2016-09-24T07:14:15.236Z,16.09
2016-09-24T07:15:15.247Z,16.16
2016-09-24T07:16:15.241Z,16.21
2016-09-24T07:17:15.264Z,16.21
2016-09-24T07:18:15.278Z,16.23
2016-09-24T07:19:15.310Z,16.23
2016-09-24T07:20:15.324Z,16.35
2016-09-24T07:21:15.349Z,16.28
2016-09-24T07:22:15.356Z,16.38
2016-09-24T07:23:15.382Z,16.36
2016-09-24T07:24:15.412Z,16.39
2016-09-24T07:25:15.429Z,16.42
2016-09-24T07:26:15.442Z,16.43
2016-09-24T07:27:15.477Z,16.43
2016-09-24T07:28:15.488Z,16.49
2016-09-24T07:29:15.508Z,16.56
2016-09-24T07:30:15.525Z,16.57
2016-09-24T07:31:15.553Z,16.61
2016-09-24T07:32:15.579Z,16.64
2016-09-24T07:33:15.596Z,16.74
2016-09-24T07:34:15.610Z,16.76
2016-09-24T07:35:15.632Z,16.79
2016-09-24T07:36:15.648Z,16.78
2016-09-24T07:37:15.680Z,16.81
2016-09-24T07:38:15.687Z,16.84
2016-09-24T07:39:15.715Z,16.93
2016-09-24T07:40:15.732Z,16.91
2016-09-24T07:41:15.750Z,16.97
2016-09-24T07:42:15.787Z,16.99
2016-09-24T07:43:15.805Z,16.9
2016-09-24T07:44:15.832Z,16.99
2016-09-24T07:45:15.843Z,17.11
2016-09-24T07:46:15.862Z,17.02
2016-09-24T07:47:15.878Z,17.05
2016-09-24T07:48:15.918Z,17.08
2016-09-24T07:49:15.929Z,17.12
2016-09-24T07:50:15.944Z,17.11
2016-09-24T07:51:15.968Z,17.26
2016-09-24T07:52:15.988Z,17.23
2016-09-24T07:53:16.003Z,17.3
2016-09-24T07:54:16.017Z,17.39
2016-09-24T07:55:16.045Z,17.36
2016-09-24T07:56:16.062Z,17.52
2016-09-24T07:57:16.396Z,17.45
2016-09-24T07:58:16.116Z,17.46
2016-09-24T07:59:16.137Z,17.57
2016-09-24T08:00:16.152Z,17.59
2016-09-24T08:01:16.175Z,17.6
2016-09-24T08:02:16.202Z,17.64
2016-09-24T08:03:16.216Z,17.76
2016-09-24T08:04:16.236Z,17.76
2016-09-24T08:05:16.266Z,17.71
2016-09-24T08:06:16.282Z,17.79
2016-09-24T08:07:16.297Z,17.82
2016-09-24T08:08:16.332Z,17.89
2016-09-24T08:09:16.335Z,17.94
2016-09-24T08:10:16.362Z,18.04
2016-09-24T08:11:16.386Z,17.95
2016-09-24T08:12:16.409Z,17.97
2016-09-24T08:13:16.437Z,18.11
2016-09-24T08:14:16.444Z,18.07
2016-09-24T08:15:16.464Z,18.16
2016-09-24T08:16:16.503Z,18.16
2016-09-24T08:17:16.507Z,18.22
2016-09-24T08:18:16.529Z,18.28
2016-09-24T08:19:16.561Z,18.37
2016-09-24T08:20:16.575Z,18.43
2016-09-24T08:21:16.595Z,18.44
2016-09-24T08:22:16.625Z,18.5
2016-09-24T08:23:16.644Z,18.52
2016-09-24T08:24:16.656Z,18.62
2016-09-24T08:25:16.690Z,18.66
2016-09-24T08:26:16.716Z,18.65
2016-09-24T08:27:16.723Z,18.74
2016-09-24T08:28:16.760Z,18.81
2016-09-24T08:29:16.776Z,18.81
2016-09-24T08:30:16.794Z,18.86
2016-09-24T08:31:16.817Z,18.88
2016-09-24T08:32:16.835Z,18.93
2016-09-24T08:33:16.942Z,18.92
2016-09-24T08:34:16.891Z,18.93
2016-09-24T08:35:16.900Z,19.04
2016-09-24T08:36:16.925Z,19.12
2016-09-24T08:37:16.942Z,19.22
2016-09-24T08:38:16.963Z,19.21
2016-09-24T08:39:16.996Z,19.24
2016-09-24T08:40:17.015Z,19.27
2016-09-24T08:41:17.031Z,19.36
2016-09-24T08:42:17.053Z,19.37
2016-09-24T08:43:17.076Z,19.36
2016-09-24T08:44:17.088Z,19.47
2016-09-24T08:45:17.121Z,19.56
2016-09-24T08:46:17.151Z,19.52
2016-09-24T08:47:17.161Z,19.58
2016-09-24T08:48:17.182Z,19.58
2016-09-24T08:49:17.211Z,19.58
2016-09-24T08:50:17.232Z,19.71
2016-09-24T08:51:17.373Z,19.79
2016-09-24T08:52:17.278Z,19.73
2016-09-24T08:53:17.292Z,19.85
2016-09-24T08:54:17.313Z,19.86
2016-09-24T08:55:17.350Z,19.95
2016-09-24T08:56:17.362Z,19.91
2016-09-24T08:57:17.373Z,19.99
2016-09-24T08:58:17.410Z,20
2016-09-24T08:59:17.427Z,20.04
2016-09-24T09:00:17.452Z,20.21
2016-09-24T09:01:17.461Z,20.11
2016-09-24T09:02:17.805Z,20.16
2016-09-24T09:03:17.515Z,20.28
2016-09-24T09:04:17.537Z,20.24
2016-09-24T09:05:17.566Z,20.26
2016-09-24T09:06:17.585Z,20.34
2016-09-24T09:07:17.610Z,20.43
2016-09-24T09:08:17.637Z,20.4
2016-09-24T09:09:17.646Z,20.5
2016-09-24T09:10:17.671Z,20.41
2016-09-24T09:11:17.699Z,20.52
2016-09-24T09:12:17.725Z,20.6
2016-09-24T09:13:17.744Z,20.63
2016-09-24T09:14:18.076Z,20.63
2016-09-24T09:15:17.788Z,20.75
2016-09-24T09:16:17.909Z,20.77
2016-09-24T09:17:17.844Z,20.75
2016-09-24T09:18:17.863Z,20.84
2016-09-24T09:19:17.876Z,20.84
2016-09-24T09:20:17.944Z,20.87
2016-09-24T09:21:18.062Z,20.88
2016-09-24T09:22:17.962Z,20.9
2016-09-24T09:23:17.968Z,20.97
2016-09-24T09:24:17.984Z,20.97
2016-09-24T09:25:18.013Z,20.99
2016-09-24T09:26:18.032Z,21.09
2016-09-24T09:27:18.063Z,21.15
2016-09-24T09:28:18.086Z,21.21
2016-09-24T09:29:18.104Z,21.25
2016-09-24T09:30:18.129Z,21.25
2016-09-24T09:31:18.150Z,21.32
2016-09-24T09:32:18.185Z,21.37
2016-09-24T09:33:18.197Z,21.43
2016-09-24T09:34:18.223Z,21.4
2016-09-24T09:35:18.255Z,21.51
2016-09-24T09:36:18.275Z,21.5
2016-09-24T09:37:18.290Z,21.58
2016-09-24T09:38:18.325Z,21.6
2016-09-24T09:39:18.344Z,21.67
2016-09-24T09:40:18.473Z,21.76
2016-09-24T09:41:18.482Z,21.69
2016-09-24T09:42:18.500Z,21.77
2016-09-24T09:43:18.545Z,21.83
2016-09-24T09:44:18.547Z,21.82
2016-09-24T09:45:18.488Z,21.93
2016-09-24T09:46:18.497Z,21.98
2016-09-24T09:47:18.530Z,22
2016-09-24T09:48:18.553Z,22.04
2016-09-24T09:49:18.565Z,22.04
2016-09-24T09:50:18.594Z,22.14
2016-09-24T09:51:18.620Z,22.13
2016-09-24T09:52:18.636Z,22.15
2016-09-24T09:53:18.664Z,22.23
2016-09-24T09:54:18.688Z,22.29
2016-09-24T09:55:18.717Z,22.32
2016-09-24T09:56:18.738Z,22.33
2016-09-24T09:57:18.756Z,22.44
2016-09-24T09:58:18.787Z,22.51
2016-09-24T09:59:18.812Z,22.5
2016-09-24T10:00:18.830Z,22.47
2016-09-24T10:01:18.862Z,22.59
2016-09-24T10:02:18.885Z,22.62
2016-09-24T10:03:19.038Z,22.57
2016-09-24T10:04:19.054Z,22.59
2016-09-24T10:05:18.963Z,22.69
2016-09-24T10:06:18.969Z,22.73
2016-09-24T10:07:18.999Z,22.85
2016-09-24T10:08:19.022Z,22.84
2016-09-24T10:09:19.041Z,22.85
2016-09-24T10:10:19.078Z,22.93
2016-09-24T10:11:19.093Z,23.02
2016-09-24T10:12:19.113Z,23.08
2016-09-24T10:13:19.137Z,23.15
2016-09-24T10:14:19.167Z,23.17
2016-09-24T10:15:19.189Z,23.21
2016-09-24T10:16:19.214Z,23.21
2016-09-24T10:17:19.250Z,23.34
2016-09-24T10:18:19.263Z,23.34
2016-09-24T10:19:19.289Z,23.37
2016-09-24T10:20:19.313Z,23.5
2016-09-24T10:21:19.347Z,23.43
2016-09-24T10:22:19.358Z,23.54
2016-09-24T10:23:19.379Z,23.55
2016-09-24T10:24:19.415Z,23.61
2016-09-24T10:25:19.439Z,23.65
2016-09-24T10:26:19.467Z,23.68
2016-09-24T10:27:19.801Z,23.69
2016-09-24T10:28:19.501Z,23.73
2016-09-24T10:29:19.545Z,23.69
2016-09-24T10:30:19.559Z,23.69
2016-09-24T10:31:19.583Z,23.86
2016-09-24T10:32:19.611Z,23.88
2016-09-24T10:33:19.643Z,23.91
2016-09-24T10:34:19.669Z,23.99
2016-09-24T10:35:19.682Z,24.06
2016-09-24T10:36:19.711Z,24.08
2016-09-24T10:37:19.799Z,24.14
2016-09-24T10:38:19.820Z,24.24
2016-09-24T10:39:19.808Z,24.23
2016-09-24T10:40:19.833Z,24.32
2016-09-24T10:41:19.876Z,24.3
2016-09-24T10:42:19.869Z,24.33
2016-09-24T10:43:19.888Z,24.3
2016-09-24T10:44:19.906Z,24.42
2016-09-24T10:45:19.941Z,24.45
2016-09-24T10:46:20.135Z,24.4
2016-09-24T10:47:19.986Z,24.42
2016-09-24T10:48:20.025Z,24.51
2016-09-24T10:49:20.035Z,24.48
2016-09-24T10:50:20.058Z,24.6
2016-09-24T10:51:20.098Z,24.57
2016-09-24T10:52:20.109Z,24.63
2016-09-24T10:53:20.140Z,24.73
2016-09-24T10:54:20.162Z,24.78
2016-09-24T10:55:20.189Z,24.7
2016-09-24T10:56:20.217Z,24.85
2016-09-24T10:57:20.236Z,24.84
2016-09-24T10:58:20.260Z,24.95
2016-09-24T10:59:20.304Z,24.99
2016-09-24T11:00:20.310Z,25.04
2016-09-24T11:01:20.338Z,25.07
2016-09-24T11:02:20.364Z,25.11
2016-09-24T11:03:20.398Z,25.1
2016-09-24T11:04:20.418Z,25.17
2016-09-24T11:05:20.440Z,25.26
2016-09-24T11:06:20.464Z,25.33
2016-09-24T11:07:20.488Z,25.31
2016-09-24T11:08:20.524Z,25.31
2016-09-24T11:09:20.540Z,25.29
2016-09-24T11:10:20.583Z,25.35
2016-09-24T11:11:20.587Z,25.47
2016-09-24T11:12:20.620Z,25.58
2016-09-24T11:13:20.652Z,25.54
2016-09-24T11:14:20.670Z,25.55
2016-09-24T11:15:20.704Z,25.63
2016-09-24T11:16:20.725Z,25.7
2016-09-24T11:17:20.752Z,25.7
2016-09-24T11:18:20.779Z,25.8
2016-09-24T11:19:20.799Z,25.84
2016-09-24T11:20:20.820Z,25.8
2016-09-24T11:21:20.853Z,25.95
2016-09-24T11:22:20.883Z,25.95
2016-09-24T11:23:20.911Z,25.95
2016-09-24T11:24:20.942Z,26.03
2016-09-24T11:25:20.952Z,26.13
2016-09-24T11:26:20.997Z,26.09
2016-09-24T11:27:21.011Z,26.15
2016-09-24T11:28:21.040Z,26.18
2016-09-24T11:29:21.080Z,26.16
2016-09-24T11:30:21.100Z,26.23
2016-09-24T11:31:21.120Z,26.23
2016-09-24T11:32:21.148Z,26.26
2016-09-24T11:33:21.179Z,26.25
2016-09-24T11:34:21.194Z,26.33
2016-09-24T11:35:21.221Z,26.36
2016-09-24T11:36:21.254Z,26.36
2016-09-24T11:37:21.277Z,26.41
2016-09-24T11:38:21.297Z,26.48
2016-09-24T11:39:21.333Z,26.47
2016-09-24T11:40:21.363Z,26.53
2016-09-24T11:41:21.499Z,26.48
2016-09-24T11:42:21.493Z,26.6
2016-09-24T11:43:21.522Z,26.63
2016-09-24T11:44:21.682Z,26.68
2016-09-24T11:45:21.697Z,26.7
2016-09-24T11:46:21.704Z,26.65
2016-09-24T11:47:21.713Z,26.74
2016-09-24T11:48:21.728Z,26.73
2016-09-24T11:49:21.732Z,26.84
2016-09-24T11:50:21.749Z,26.8
2016-09-24T11:51:21.790Z,26.77
2016-09-24T11:52:21.802Z,26.88
2016-09-24T11:53:21.795Z,26.89
2016-09-24T11:54:21.848Z,26.92
2016-09-24T11:55:21.852Z,26.92
2016-09-24T11:56:21.868Z,26.93
2016-09-24T11:57:21.895Z,26.97
2016-09-24T11:58:21.891Z,27.03
2016-09-24T11:59:21.901Z,27.11
2016-09-24T12:00:21.919Z,27.15
2016-09-24T12:01:21.932Z,27.17
2016-09-24T12:02:21.962Z,27.18
2016-09-24T12:03:21.981Z,27.3
2016-09-24T12:04:22.008Z,27.26
2016-09-24T12:05:22.048Z,27.42
2016-09-24T12:06:22.065Z,27.42
2016-09-24T12:07:22.094Z,27.44
2016-09-24T12:08:22.117Z,27.45
2016-09-24T12:09:22.149Z,27.45
2016-09-24T12:10:22.183Z,27.55
2016-09-24T12:11:22.212Z,27.51
2016-09-24T12:12:22.231Z,27.58
2016-09-24T12:13:22.259Z,27.59
2016-09-24T12:14:22.296Z,27.6
2016-09-24T12:15:22.314Z,27.68
2016-09-24T12:16:22.345Z,27.68
2016-09-24T12:17:22.370Z,27.7
2016-09-24T12:18:22.396Z,27.74
2016-09-24T12:19:22.425Z,27.74
2016-09-24T12:20:22.461Z,27.83
2016-09-24T12:21:22.484Z,27.83
2016-09-24T12:22:22.524Z,27.89
2016-09-24T12:23:22.547Z,27.9
2016-09-24T12:24:22.563Z,27.93
2016-09-24T12:25:22.599Z,27.9
2016-09-24T12:26:22.639Z,27.8
2016-09-24T12:27:22.652Z,27.87
2016-09-24T12:28:22.674Z,27.85
2016-09-24T12:29:22.706Z,27.83
2016-09-24T12:30:22.732Z,27.85
2016-09-24T12:31:22.787Z,27.85
2016-09-24T12:32:22.795Z,27.8
2016-09-24T12:33:22.817Z,27.87
2016-09-24T12:34:22.846Z,27.78
2016-09-24T12:35:22.882Z,27.78
2016-09-24T12:36:22.902Z,27.77
2016-09-24T12:37:22.951Z,27.82
2016-09-24T12:38:22.952Z,27.8
2016-09-24T12:39:22.990Z,27.7
2016-09-24T12:40:23.013Z,27.7
2016-09-24T12:41:23.042Z,27.68
2016-09-24T12:42:23.068Z,27.7
2016-09-24T12:43:23.101Z,27.71
2016-09-24T12:44:23.136Z,27.68
2016-09-24T12:45:23.161Z,27.59
2016-09-24T12:46:23.193Z,27.63
2016-09-24T12:47:23.213Z,27.59
2016-09-24T12:48:23.251Z,27.59
2016-09-24T12:49:23.274Z,27.59
2016-09-24T12:50:23.313Z,27.64
2016-09-24T12:51:23.330Z,27.58
2016-09-24T12:52:23.354Z,27.55
2016-09-24T12:53:23.390Z,27.6
2016-09-24T12:54:23.424Z,27.65
2016-09-24T12:55:23.447Z,27.59